Time;durP1;ratioP1;P1;durP2;ratioP2;P2;SDS_P1;SDS_P2;PMS_P1;PMS_P2;Temp;Humidity;BMP_temperature;BMP_pressure;BME280_temperature;BME280_humidity;BME280_pressure;Samples;Min_cycle;Max_cycle;Signal;HPM_P1;HPM_P2
2022/06/06 00:01:23;;;;;;;5.78;5.20;;;;;;;18.24;63.92;99573.56;5017009;28;20033;-79
2022/06/06 00:03:49;;;;;;;7.72;5.70;;;;;;;18.16;64.28;99574.16;5017588;28;20032;-79
2022/06/06 00:06:19;;;;;;;6.18;5.57;;;;;;;18.15;64.00;99570.69;5034985;28;20475;-79
2022/06/06 00:08:45;;;;;;;;;;;;;;;18.13;64.18;99569.16;5035710;28;20121;-79
2022/06/06 00:11:11;;;;;;;6.38;5.88;;;;;;;18.02;64.29;99556.81;5034767;28;19959;-79
2022/06/06 00:13:40;;;;;;;6.05;5.45;;;;;;;18.04;64.26;99572.53;5034955;28;20037;-79
2022/06/06 00:16:06;;;;;;;7.57;5.70;;;;;;;17.97;64.29;99558.13;5034707;28;20032;-79
2022/06/06 00:18:33;;;;;;;6.07;5.38;;;;;;;17.99;64.17;99561.47;5035086;28;20021;-79
2022/06/06 00:20:59;;;;;;;7.10;5.95;;;;;;;17.96;64.59;99562.56;5017084;28;20080;-79
2022/06/06 00:23:25;;;;;;;9.68;5.80;;;;;;;17.87;64.22;99544.84;5034824;28;20033;-79
2022/06/06 00:25:53;;;;;;;7.90;5.70;;;;;;;17.79;64.44;99553.34;5017077;28;20025;-79
2022/06/06 00:28:19;;;;;;;6.25;5.65;;;;;;;17.84;64.43;99559.09;5034356;28;20450;-79
2022/06/06 00:30:44;;;;;;;8.95;5.63;;;;;;;17.80;64.49;99552.38;5035173;28;20037;-79
2022/06/06 00:35:57;;;;;;;6.53;5.72;;;;;;;17.69;64.42;99533.91;5034850;28;20045;-79
2022/06/06 00:38:22;;;;;;;6.63;5.97;;;;;;;17.66;64.70;99529.75;5016502;28;20040;-79
2022/06/06 00:40:49;;;;;;;6.32;5.47;;;;;;;17.64;64.97;99518.47;5011924;28;20038;-79
2022/06/06 00:43:15;;;;;;;6.07;5.47;;;;;;;17.63;65.20;99526.50;5012067;28;20033;-79
2022/06/06 00:45:41;;;;;;;6.60;6.00;;;;;;;17.53;65.39;99507.94;5012217;28;20041;-79
2022/06/06 00:48:22;;;;;;;8.30;6.00;;;;;;;17.51;65.78;99501.94;4992158;28;20049;-79
2022/06/06 00:51:25;;;;;;;10.70;6.13;;;;;;;17.48;65.68;99491.66;4992488;28;20045;-79
2022/06/06 00:53:53;;;;;;;6.68;6.00;;;;;;;17.39;65.45;99472.13;4953764;29;20039;-79
2022/06/06 00:56:27;;;;;;;6.32;5.72;;;;;;;17.31;65.58;99466.63;4953244;29;20059;-79
2022/06/06 00:58:56;;;;;;;6.53;5.80;;;;;;;17.42;65.27;99474.53;4953776;28;20031;-79
2022/06/06 01:01:23;;;;;;;6.32;5.72;;;;;;;17.40;65.19;99473.84;4937180;29;20039;-79
2022/06/06 01:03:49;;;;;;;6.15;5.65;;;;;;;17.40;64.95;99467.69;4937507;28;20135;-79
2022/06/06 01:06:18;;;;;;;8.90;5.70;;;;;;;17.35;65.03;99460.16;4937232;29;20126;-79
2022/06/06 01:08:47;;;;;;;6.65;5.95;;;;;;;17.41;64.56;99466.78;4953430;29;20495;-79
2022/06/06 01:11:13;;;;;;;6.55;5.55;;;;;;;17.42;64.46;99463.19;4958032;28;20129;-79
2022/06/06 01:13:41;;;;;;;7.22;6.53;;;;;;;17.42;64.30;99466.63;4956507;28;20146;-79
2022/06/06 01:16:32;;;;;;;9.57;6.80;;;;;;;17.49;64.05;99468.78;4972356;28;20039;-79
2022/06/06 01:19:09;;;;;;;7.75;5.70;;;;;;;17.50;64.31;99470.47;4956324;28;20034;-79
2022/06/06 01:22:04;;;;;;;7.15;6.45;;;;;;;17.48;64.17;99453.94;4956290;28;20042;-79
2022/06/06 01:24:53;;;;;;;9.38;6.57;;;;;;;17.52;64.41;99455.38;4952945;28;20102;-79
2022/06/06 01:27:53;;;;;;;7.93;6.13;;;;;;;17.50;64.56;99450.25;4952845;28;20074;-79
2022/06/06 01:30:22;;;;;;;7.60;6.47;;;;;;;17.49;64.85;99455.63;4952998;28;20033;-79
2022/06/06 01:32:54;;;;;;;7.60;6.50;;;;;;;17.46;64.90;99468.06;4956129;28;20086;-79
2022/06/06 01:35:28;;;;;;;9.77;6.72;;;;;;;17.48;65.05;99480.28;4955808;28;20473;-79
2022/06/06 01:37:53;;;;;;;10.25;6.53;;;;;;;17.44;65.13;99480.53;4972239;28;20502;-79
2022/06/06 01:40:20;;;;;;;7.15;6.47;;;;;;;17.43;65.74;99470.09;4955811;28;20026;-79
2022/06/06 01:43:06;;;;;;;7.13;6.43;;;;;;;17.40;65.98;99480.88;4972128;28;20068;-79
2022/06/06 01:45:43;;;;;;;7.28;6.38;;;;;;;17.39;66.27;99482.66;4971953;28;20129;-79
2022/06/06 01:48:13;;;;;;;7.50;6.47;;;;;;;17.32;66.36;99470.09;4971990;28;20042;-79
2022/06/06 01:50:41;;;;;;;7.72;6.72;;;;;;;17.29;67.16;99471.19;4971997;28;20050;-79
2022/06/06 01:53:19;;;;;;;9.00;6.43;;;;;;;17.24;67.39;99469.88;4955611;28;20043;-79
2022/06/06 01:55:47;;;;;;;10.60;7.15;;;;;;;17.18;67.82;99464.09;4971836;28;20055;-79
2022/06/06 01:58:20;;;;;;;8.32;7.00;;;;;;;17.11;67.99;99470.81;4971626;28;20035;-79
2022/06/06 02:00:46;;;;;;;7.10;6.40;;;;;;;17.10;68.24;99465.66;4999096;28;20370;-79
2022/06/06 02:03:12;;;;;;;8.02;7.18;;;;;;;17.04;68.50;99461.69;5032778;28;20032;-79
2022/06/06 02:05:38;;;;;;;7.35;6.68;;;;;;;16.97;68.84;99468.38;5015131;28;20376;-79
2022/06/06 02:08:04;;;;;;;8.25;6.97;;;;;;;16.96;69.01;99461.44;5015018;28;20086;-79
2022/06/06 02:10:29;;;;;;;9.52;6.53;;;;;;;16.94;69.28;99447.59;5014704;28;20129;-79
2022/06/06 02:12:54;;;;;;;7.68;6.88;;;;;;;16.91;69.48;99455.69;5032981;28;20029;-79
2022/06/06 02:15:23;;;;;;;7.43;6.72;;;;;;;16.88;69.54;99456.75;5032553;28;20048;-79
2022/06/06 02:17:50;;;;;;;9.43;7.10;;;;;;;16.86;69.77;99452.59;5032788;28;20026;-79
2022/06/06 02:20:18;;;;;;;9.85;7.68;;;;;;;16.87;69.85;99449.00;5032467;28;20037;-79
2022/06/06 02:22:44;;;;;;;9.02;7.40;;;;;;;16.90;69.81;99459.28;5014618;28;20442;-79
2022/06/06 02:25:11;;;;;;;10.07;7.53;;;;;;;16.86;69.64;99444.69;5014904;28;20045;-79
2022/06/06 02:27:37;;;;;;;8.75;7.85;;;;;;;16.84;69.92;99434.28;5032442;28;20033;-79
2022/06/06 02:30:06;;;;;;;9.50;8.60;;;;;;;16.93;69.75;99445.88;5014802;28;20029;-79
2022/06/06 02:32:32;;;;;;;7.55;6.70;;;;;;;16.89;69.67;99434.75;5032072;28;20025;-79
2022/06/06 02:34:58;;;;;;;7.65;6.93;;;;;;;16.97;69.70;99434.16;5014659;28;20116;-79
2022/06/06 02:37:23;;;;;;;9.27;7.28;;;;;;;16.96;69.33;99438.59;5032273;28;20060;-79
2022/06/06 02:39:49;;;;;;;7.88;7.10;;;;;;;17.03;69.26;99432.88;5032279;28;20487;-79
2022/06/06 02:42:14;;;;;;;8.20;7.40;;;;;;;17.02;69.30;99439.91;5031961;28;20550;-79
2022/06/06 02:44:40;;;;;;;11.40;7.90;;;;;;;17.01;69.64;99445.31;5014615;28;20442;-79
2022/06/06 02:47:05;;;;;;;10.52;8.32;;;;;;;16.93;69.48;99425.69;5032220;28;20071;-79
2022/06/06 02:49:33;;;;;;;10.23;8.15;;;;;;;17.00;69.23;99436.59;5014196;28;20362;-79
2022/06/06 02:52:03;;;;;;;11.82;8.55;;;;;;;16.94;69.47;99424.75;5014155;28;20032;-79
2022/06/06 02:54:29;;;;;;;12.10;7.63;;;;;;;16.91;69.62;99429.41;5014016;28;20551;-79
2022/06/06 02:56:55;;;;;;;11.20;8.18;;;;;;;16.90;70.24;99440.88;5032400;28;20029;-79
2022/06/06 02:59:23;;;;;;;11.18;8.85;;;;;;;16.87;70.42;99430.59;5031914;28;20056;-79
2022/06/06 03:01:48;;;;;;;9.48;7.63;;;;;;;16.79;70.52;99435.59;5014131;28;20017;-79
2022/06/06 03:04:13;;;;;;;12.05;7.45;;;;;;;16.84;70.70;99450.06;5032088;28;20026;-79
2022/06/06 03:07:04;;;;;;;8.00;7.22;;;;;;;16.88;70.88;99477.81;5014109;28;20026;-79
2022/06/06 03:09:46;;;;;;;8.88;7.95;;;;;;;16.90;70.93;99464.56;5014109;28;20112;-80
2022/06/06 03:12:37;;;;;;;8.98;8.00;;;;;;;16.95;70.78;99459.78;5014161;28;20120;-79
2022/06/06 03:15:23;;;;;;;11.73;8.88;;;;;;;16.94;70.86;99458.09;5013637;28;20036;-79
2022/06/06 03:20:49;;;;;;;10.25;9.00;;;;;;;16.87;71.14;99459.53;5031842;28;20094;-79
2022/06/06 03:23:26;;;;;;;10.10;8.65;;;;;;;16.86;71.39;99465.75;5013993;28;20025;-79
2022/06/06 03:26:27;;;;;;;10.98;8.95;;;;;;;16.85;71.92;99470.13;5032055;28;20109;-79
2022/06/06 03:29:24;;;;;;;12.38;9.20;;;;;;;16.87;71.79;99465.63;4954455;28;20438;-79
2022/06/06 03:31:56;;;;;;;13.27;10.00;;;;;;;16.88;71.84;99462.03;4953494;28;20034;-79
2022/06/06 03:34:43;;;;;;;10.25;9.23;;;;;;;16.84;71.96;99452.69;4970295;28;20566;-80
2022/06/06 03:37:12;;;;;;;11.55;9.52;;;;;;;16.85;72.20;99462.25;4954351;28;20066;-79
2022/06/06 03:40:08;;;;;;;10.65;9.55;;;;;;;16.81;72.40;99462.59;4954026;28;20073;-79
2022/06/06 03:42:55;;;;;;;12.77;9.55;;;;;;;16.83;72.65;99458.06;4954006;28;20482;-79
2022/06/06 03:45:30;;;;;;;10.55;9.55;;;;;;;16.82;72.72;99461.66;4970246;28;20382;-79
2022/06/06 03:47:56;;;;;;;14.57;9.23;;;;;;;16.85;72.75;99456.97;4970405;28;20439;-79
2022/06/06 03:50:29;;;;;;;11.57;8.75;;;;;;;16.81;72.72;99444.19;4953862;28;20031;-79
2022/06/06 03:53:02;;;;;;;10.25;9.00;;;;;;;16.92;72.95;99442.41;4970302;28;20077;-79
2022/06/06 03:56:04;;;;;;;10.50;9.40;;;;;;;17.08;72.22;99450.00;4953639;28;20058;-79
2022/06/06 03:58:32;;;;;;;10.23;8.80;;;;;;;17.20;71.96;99443.78;4953717;28;20034;-79
2022/06/06 04:01:02;;;;;;;10.65;9.00;;;;;;;17.37;71.60;99452.16;4953938;28;20034;-79
2022/06/06 04:03:31;;;;;;;9.48;8.40;;;;;;;17.45;71.01;99447.97;4953845;28;20027;-79
2022/06/06 04:05:57;;;;;;;10.45;9.18;;;;;;;17.50;70.48;99439.72;5001998;28;20049;-79
2022/06/06 04:08:23;;;;;;;10.38;8.55;;;;;;;17.61;70.21;99441.50;5013411;28;20076;-79
2022/06/06 04:11:07;;;;;;;10.38;9.27;;;;;;;17.75;70.06;99450.97;5031315;28;20548;-79
2022/06/06 04:13:56;;;;;;;10.02;8.32;;;;;;;18.01;69.58;99459.44;5013506;28;20500;-79
2022/06/06 04:16:28;;;;;;;9.98;8.98;;;;;;;18.56;67.62;99454.94;5013440;28;20103;-79
2022/06/06 04:18:59;;;;;;;12.00;8.48;;;;;;;19.35;64.52;99455.31;5013599;28;20025;-79
2022/06/06 04:21:49;;;;;;;11.32;8.18;;;;;;;20.37;60.25;99459.50;5013137;28;20083;-79
2022/06/06 04:24:23;;;;;;;9.23;8.27;;;;;;;21.37;56.00;99450.34;5031375;28;20018;-79
2022/06/06 04:27:02;;;;;;;9.35;8.40;;;;;;;22.05;53.31;99450.81;5014151;28;20120;-79
2022/06/06 04:29:49;;;;;;;10.63;8.38;;;;;;;22.04;52.32;99461.59;5016818;28;20453;-79
2022/06/06 04:32:27;;;;;;;10.43;8.82;;;;;;;21.96;52.90;99465.00;5034636;28;20036;-79
2022/06/06 04:35:02;;;;;;;10.68;8.45;;;;;;;21.83;52.40;99468.00;5016861;28;20134;-80
2022/06/06 04:37:35;;;;;;;10.20;8.43;;;;;;;21.70;53.21;99461.34;5016639;28;20110;-80
2022/06/06 04:40:40;;;;;;;9.30;8.05;;;;;;;21.53;53.53;99460.31;5034618;28;20057;-80
2022/06/06 04:43:32;;;;;;;8.45;7.65;;;;;;;21.76;53.12;99458.13;5034642;28;20056;-80
2022/06/06 04:46:00;;;;;;;9.05;8.13;;;;;;;22.06;52.13;99449.84;4957086;28;20546;-80
2022/06/06 04:48:27;;;;;;;10.32;7.53;;;;;;;22.60;50.46;99445.41;4956966;28;20065;-79
2022/06/06 04:50:54;;;;;;;8.73;7.28;;;;;;;22.76;49.73;99436.75;4973153;28;20034;-80
2022/06/06 04:53:22;;;;;;;9.63;8.07;;;;;;;22.25;50.10;99438.31;4973023;28;20031;-80
2022/06/06 04:55:50;;;;;;;10.98;7.47;;;;;;;21.86;51.49;99442.97;4972973;28;20193;-79
2022/06/06 04:58:17;;;;;;;9.13;7.10;;;;;;;21.69;52.65;99447.25;4953348;29;20573;-80
2022/06/06 05:00:44;;;;;;;10.18;7.95;;;;;;;21.30;53.29;99436.81;4953256;29;20043;-80
2022/06/06 05:03:10;;;;;;;7.93;7.22;;;;;;;21.16;54.35;99447.88;4953377;29;20040;-80
2022/06/06 05:05:44;;;;;;;8.18;7.32;;;;;;;21.38;54.77;99450.19;4953368;29;20372;-80
2022/06/06 05:08:47;;;;;;;9.20;8.13;;;;;;;22.01;53.04;99462.72;4953380;29;20402;-80
2022/06/06 05:11:35;;;;;;;8.48;7.68;;;;;;;23.27;49.50;99460.84;4953692;29;20054;-80
2022/06/06 05:14:49;;;;;;;9.00;7.70;;;;;;;24.89;45.42;99452.44;4953382;29;20042;-79
2022/06/06 05:17:32;;;;;;;8.25;7.43;;;;;;;25.08;43.69;99456.63;4915215;29;20072;-80
2022/06/06 05:20:03;;;;;;;14.55;8.13;;;;;;;24.49;44.56;99468.47;4915149;29;20096;-80
2022/06/06 05:22:41;;;;;;;11.15;7.90;;;;;;;23.99;46.38;99464.84;4904514;29;20047;-80
2022/06/06 05:25:15;;;;;;;9.15;7.50;;;;;;;23.89;46.89;99466.78;4914931;29;20048;-79
2022/06/06 05:28:07;;;;;;;8.55;7.65;;;;;;;24.03;47.21;99468.84;4898837;29;20063;-80
2022/06/06 05:31:00;;;;;;;10.38;8.07;;;;;;;24.48;46.02;99464.09;4877431;29;20112;-79
2022/06/06 05:33:36;;;;;;;7.60;6.90;;;;;;;25.91;42.83;99446.53;4876929;29;20855;-80
2022/06/06 05:36:01;;;;;;;8.90;7.47;;;;;;;27.23;39.29;99445.38;4877634;29;20045;-80
2022/06/06 05:39:08;;;;;;;7.38;6.55;;;;;;;27.83;38.37;99453.19;4876735;29;20041;-80
2022/06/06 05:41:43;;;;;;;9.32;7.20;;;;;;;27.51;38.44;99456.22;4839901;29;20118;-80
2022/06/06 05:45:01;;;;;;;8.23;6.85;;;;;;;27.13;39.81;99468.84;4824866;29;20050;-80
2022/06/06 05:47:44;;;;;;;7.53;6.53;;;;;;;26.83;40.04;99458.06;4839797;29;20042;-80
2022/06/06 05:50:21;;;;;;;7.43;6.60;;;;;;;27.01;40.50;99471.97;4840085;29;20645;-80
2022/06/06 05:53:05;;;;;;;6.60;5.95;;;;;;;27.35;39.89;99474.16;4850499;29;20041;-79
2022/06/06 05:55:49;;;;;;;8.05;5.93;;;;;;;27.57;39.64;99471.56;4866644;29;20433;-79
2022/06/06 05:58:26;;;;;;;8.00;6.38;;;;;;;27.48;39.99;99464.66;4895545;29;20462;-80
2022/06/06 06:01:11;;;;;;;6.82;6.13;;;;;;;27.45;39.57;99470.34;4879734;29;20537;-80
2022/06/06 06:04:04;;;;;;;6.97;6.28;;;;;;;26.98;40.63;99471.47;4895685;29;20040;-80
2022/06/06 06:06:51;;;;;;;8.40;6.85;;;;;;;26.46;41.10;99480.25;4896207;29;20478;-79
2022/06/06 06:09:34;;;;;;;7.25;6.55;;;;;;;26.97;40.90;99489.38;4914270;29;20032;-80
2022/06/06 06:12:41;;;;;;;7.63;6.88;;;;;;;27.84;40.03;99484.28;4914418;29;20099;-79
2022/06/06 06:15:40;;;;;;;7.20;6.45;;;;;;;28.79;38.03;99485.09;4895306;29;20048;-79
2022/06/06 06:18:26;;;;;;;9.68;6.50;;;;;;;29.61;36.99;99473.75;4897582;29;20416;-80
2022/06/06 06:21:24;;;;;;;8.57;6.82;;;;;;;29.99;35.70;99476.78;4933048;29;20050;-79
2022/06/06 06:23:57;;;;;;;9.55;6.18;;;;;;;29.23;36.72;99484.84;4961736;28;20038;-80
2022/06/06 06:26:22;;;;;;;9.75;6.50;;;;;;;28.55;37.36;99494.38;4990632;28;20043;-79
2022/06/06 06:28:50;;;;;;;7.03;6.32;;;;;;;28.33;38.33;99488.13;4990522;28;20041;-80
2022/06/06 06:31:24;;;;;;;9.57;5.88;;;;;;;30.54;35.49;99495.56;4974348;28;20045;-80
2022/06/06 06:34:04;;;;;;;7.47;6.07;;;;;;;33.19;31.59;99505.44;4974026;28;20049;-80
2022/06/06 06:37:07;;;;;;;6.70;6.00;;;;;;;35.51;27.59;99495.19;4974050;28;20058;-80
2022/06/06 06:39:38;;;;;;;7.28;5.65;;;;;;;37.89;24.81;99507.72;4990340;28;20042;-78
2022/06/06 06:42:15;;;;;;;6.70;5.50;;;;;;;38.99;22.65;99502.03;4990409;28;20035;-78
2022/06/06 06:44:48;;;;;;;5.95;5.28;;;;;;;36.80;24.60;99502.84;4990260;28;20045;-78
2022/06/06 06:47:21;;;;;;;7.15;4.95;;;;;;;36.64;25.18;99508.00;4990379;28;20049;-78
2022/06/06 06:50:00;;;;;;;6.05;5.45;;;;;;;37.33;24.47;99504.22;4989897;28;20035;-78
2022/06/06 06:52:28;;;;;;;6.20;5.22;;;;;;;38.71;22.91;99506.66;5016118;28;20457;-78
2022/06/06 06:55:15;;;;;;;5.97;4.93;;;;;;;39.05;22.71;99495.50;5032161;28;20088;-78
2022/06/06 06:58:06;;;;;;;5.38;4.88;;;;;;;38.48;23.43;99501.56;5014004;28;20026;-78
2022/06/06 07:00:54;;;;;;;5.20;4.53;;;;;;;36.02;25.95;99497.06;5032228;28;20168;-78
2022/06/06 07:10:21;;;;;;;6.22;4.68;;;;;;;33.74;29.59;99502.78;5032121;28;20442;-78
2022/06/06 07:13:14;;;;;;;5.72;5.13;;;;;;;31.74;32.79;99510.63;5014225;28;20124;-78
2022/06/06 07:15:57;;;;;;;5.35;4.85;;;;;;;30.18;35.32;99501.28;5031547;28;20025;-78
2022/06/06 07:18:29;;;;;;;5.90;5.28;;;;;;;28.95;38.59;99505.44;5031869;28;20021;-78
2022/06/06 07:20:56;;;;;;;5.65;5.10;;;;;;;28.04;40.53;99516.66;5031284;28;20029;-78
2022/06/06 07:23:25;;;;;;;6.22;5.22;;;;;;;27.46;42.54;99520.16;5031638;28;20038;-78
2022/06/06 07:25:54;;;;;;;6.28;5.43;;;;;;;26.93;44.36;99519.31;5031674;28;20392;-78
2022/06/06 07:28:24;;;;;;;6.23;5.20;;;;;;;26.59;45.64;99517.91;5014035;28;20025;-79
2022/06/06 07:31:06;;;;;;;7.65;5.50;;;;;;;26.39;45.71;99525.50;5013653;28;20022;-78
2022/06/06 07:34:10;;;;;;;6.13;5.45;;;;;;;26.27;46.18;99526.91;5031592;28;20030;-78
2022/06/06 07:37:02;;;;;;;6.30;5.75;;;;;;;26.80;45.94;99523.41;5040660;28;20021;-78
2022/06/06 07:39:34;;;;;;;6.43;5.82;;;;;;;26.74;45.59;99523.28;5032898;28;20025;-78
2022/06/06 07:42:06;;;;;;;5.80;5.30;;;;;;;26.68;46.51;99521.34;5013997;28;20032;-78
2022/06/06 07:45:01;;;;;;;6.53;5.93;;;;;;;27.67;44.65;99512.22;5013820;28;20037;-78
2022/06/06 07:47:53;;;;;;;5.95;5.43;;;;;;;30.11;40.17;99513.81;5031519;28;20465;-78
2022/06/06 07:50:36;;;;;;;6.53;5.93;;;;;;;31.29;36.94;99507.81;5014056;28;20095;-78
2022/06/06 07:53:20;;;;;;;6.18;5.63;;;;;;;31.77;36.64;99520.97;5013711;28;20373;-78
2022/06/06 07:55:53;;;;;;;5.88;5.28;;;;;;;32.60;33.87;99513.97;5013513;28;20496;-78
2022/06/06 07:58:31;;;;;;;6.57;5.10;;;;;;;31.88;34.38;99516.00;5031391;28;20030;-78
2022/06/06 08:01:25;;;;;;;10.98;5.90;;;;;;;30.59;37.29;99511.91;5014381;28;20044;-78
2022/06/06 08:04:17;;;;;;;6.85;5.78;;;;;;;29.33;39.40;99514.84;5035139;28;20025;-78
2022/06/06 08:06:55;;;;;;;6.32;5.72;;;;;;;28.82;41.00;99528.44;4993062;28;20125;-78
2022/06/06 08:09:32;;;;;;;6.30;5.63;;;;;;;28.66;42.45;99517.97;4993377;28;20038;-78
2022/06/06 08:12:38;;;;;;;5.82;5.13;;;;;;;28.12;43.83;99523.75;4976720;28;20077;-78
2022/06/06 08:15:12;;;;;;;7.00;6.13;;;;;;;27.49;45.60;99523.31;4957547;28;20137;-78
2022/06/06 08:18:03;;;;;;;7.35;5.88;;;;;;;26.94;47.24;99537.00;4973478;28;20039;-78
2022/06/06 08:20:53;;;;;;;7.78;6.57;;;;;;;26.51;48.61;99536.66;4973854;28;20034;-78
2022/06/06 08:23:22;;;;;;;7.10;5.97;;;;;;;26.25;49.75;99539.59;4957364;28;20042;-79
2022/06/06 08:25:49;;;;;;;6.72;6.13;;;;;;;26.15;50.14;99528.31;4957146;28;20034;-79
2022/06/06 08:28:16;;;;;;;8.15;6.25;;;;;;;26.18;50.58;99533.31;4973776;28;20118;-78
2022/06/06 08:30:44;;;;;;;6.85;5.57;;;;;;;26.06;51.09;99536.34;4973168;28;20077;-78
2022/06/06 08:33:10;;;;;;;6.30;5.53;;;;;;;26.04;52.57;99534.84;4957315;28;20045;-77
2022/06/06 08:35:49;;;;;;;6.15;5.65;;;;;;;26.06;52.94;99539.03;4973290;28;20051;-78
2022/06/06 08:38:27;;;;;;;8.33;6.33;;;;;;;26.07;52.75;99537.19;4973453;28;20054;-79
2022/06/06 08:40:55;;;;;;;8.50;6.40;;;;;;;26.08;53.49;99541.50;4948963;29;20537;-78
2022/06/06 08:43:48;;;;;;;6.47;5.80;;;;;;;26.24;52.82;99540.59;4934565;29;20539;-78
2022/06/06 08:46:13;;;;;;;6.68;6.07;;;;;;;26.69;52.19;99545.19;4918942;29;20039;-78
2022/06/06 08:48:46;;;;;;;6.85;6.25;;;;;;;27.05;51.70;99548.09;4918604;29;20071;-78
2022/06/06 08:51:37;;;;;;;10.00;6.88;;;;;;;27.23;50.35;99542.44;4994883;28;20046;-78
2022/06/06 08:54:27;;;;;;;5.78;5.28;;;;;;;27.25;50.75;99544.94;5011898;28;20034;-78
2022/06/06 08:57:10;;;;;;;6.55;5.95;;;;;;;27.08;51.25;99549.56;4995412;28;20045;-78
2022/06/06 09:00:03;;;;;;;8.68;6.10;;;;;;;26.90;52.47;99551.72;5012248;28;20115;-78
2022/06/06 09:03:04;;;;;;;6.60;5.82;;;;;;;26.83;53.10;99557.78;5011954;28;20030;-78
2022/06/06 09:06:06;;;;;;;6.85;6.15;;;;;;;26.87;54.67;99560.94;4995553;28;20034;-78
2022/06/06 09:08:38;;;;;;;6.28;5.75;;;;;;;26.91;54.72;99558.72;5011822;28;20464;-78
2022/06/06 09:11:54;;;;;;;9.32;6.00;;;;;;;27.05;54.80;99555.25;5015311;28;20049;-78
2022/06/06 09:14:50;;;;;;;7.85;6.00;;;;;;;27.06;54.26;99571.16;4975301;28;20191;-78
2022/06/06 09:17:19;;;;;;;6.40;5.80;;;;;;;26.89;55.19;99566.94;4992445;28;20038;-78
2022/06/06 09:19:53;;;;;;;6.85;6.25;;;;;;;26.66;56.34;99572.25;4975539;28;20075;-78
2022/06/06 09:22:30;;;;;;;6.65;6.00;;;;;;;26.47;57.10;99570.88;4975664;28;20488;-78
2022/06/06 09:24:59;;;;;;;6.18;5.68;;;;;;;26.24;58.02;99573.47;4991771;28;20050;-78
2022/06/06 09:28:01;;;;;;;7.03;5.80;;;;;;;25.94;58.29;99577.75;4991948;28;20423;-78
2022/06/06 09:30:51;;;;;;;9.07;6.18;;;;;;;25.75;59.74;99580.81;4991737;28;20394;-78
2022/06/06 09:33:34;;;;;;;7.00;6.30;;;;;;;25.68;60.21;99577.16;4992067;28;20038;-79
2022/06/06 09:36:26;;;;;;;6.95;5.65;;;;;;;25.62;59.88;99576.00;4991603;28;20097;-79
2022/06/06 09:41:22;;;;;;;6.57;6.05;;;;;;;25.39;61.77;99589.19;4991741;28;20456;-79
2022/06/06 09:43:55;;;;;;;6.03;5.53;;;;;;;25.19;62.66;99591.38;4975070;28;20402;-78
2022/06/06 09:46:35;;;;;;;7.07;6.47;;;;;;;25.07;63.43;99585.53;4991689;28;20458;-78
2022/06/06 09:49:19;;;;;;;6.88;6.18;;;;;;;24.86;64.21;99583.34;4984943;28;20041;-78
2022/06/06 09:52:15;;;;;;;6.30;5.70;;;;;;;24.68;65.19;99579.13;5025386;28;20025;-78
2022/06/06 10:01:37;;;;;;;5.50;5.00;;;;;;;24.76;65.44;99587.97;5033297;28;20048;-79
2022/06/06 10:04:18;;;;;;;9.65;5.18;;;;;;;24.77;66.31;99581.63;5014678;28;20033;-79
2022/06/06 10:07:03;;;;;;;6.03;5.47;;;;;;;24.78;66.41;99594.00;5032435;28;20141;-79
2022/06/06 10:10:00;;;;;;;5.53;5.03;;;;;;;24.81;66.53;99588.31;5032829;28;20350;-79
2022/06/06 10:12:47;;;;;;;5.65;5.15;;;;;;;24.87;66.45;99592.16;5032962;28;20099;-79
2022/06/06 10:15:52;;;;;;;6.45;5.80;;;;;;;24.89;66.67;99593.66;5015100;28;20151;-79
2022/06/06 10:18:45;;;;;;;5.70;5.20;;;;;;;24.91;66.13;99593.50;4971564;28;20041;-79
2022/06/06 10:21:44;;;;;;;6.35;5.75;;;;;;;24.81;67.21;99598.97;4971438;28;20043;-79
2022/06/06 10:24:36;;;;;;;6.07;5.57;;;;;;;24.71;67.99;99584.97;4970750;28;20045;-79
2022/06/06 10:27:13;;;;;;;5.88;5.38;;;;;;;24.66;69.54;99589.13;4982581;28;20070;-79
2022/06/06 10:30:11;;;;;;;6.15;5.65;;;;;;;24.63;70.11;99601.75;4974433;28;20041;-79
2022/06/06 10:32:58;;;;;;;8.40;5.85;;;;;;;24.58;70.93;99598.75;4990791;28;20501;-79
2022/06/06 10:36:01;;;;;;;5.47;4.97;;;;;;;24.59;70.53;99592.44;4990625;28;20517;-79
2022/06/06 10:38:50;;;;;;;6.78;5.97;;;;;;;24.35;71.33;99584.34;4951587;29;20083;-78
2022/06/06 10:41:40;;;;;;;6.13;5.63;;;;;;;24.26;72.40;99590.63;4951684;29;20039;-79
2022/06/06 10:44:27;;;;;;;6.80;6.20;;;;;;;24.18;73.20;99599.41;4951558;29;20031;-79
2022/06/06 10:47:05;;;;;;;6.57;6.00;;;;;;;24.11;73.56;99596.59;4951683;29;20364;-79
2022/06/06 10:50:02;;;;;;;7.15;6.40;;;;;;;23.95;74.66;99593.00;4951873;28;20031;-79
2022/06/06 10:53:15;;;;;;;5.90;5.40;;;;;;;23.83;75.94;99600.41;4951553;29;20269;-79
2022/06/06 10:56:02;;;;;;;6.30;5.75;;;;;;;23.78;76.51;99600.91;4956865;28;20055;-79
2022/06/06 10:58:46;;;;;;;6.43;5.43;;;;;;;23.70;76.84;99594.69;4951572;29;20203;-79
2022/06/06 11:01:42;;;;;;;5.70;5.20;;;;;;;23.57;77.45;99600.41;4951455;29;20360;-79
2022/06/06 11:04:19;;;;;;;5.63;5.13;;;;;;;23.53;78.06;99601.69;4951344;29;20463;-79
2022/06/06 11:07:06;;;;;;;6.03;5.43;;;;;;;23.48;78.28;99604.81;4951274;29;20183;-79
2022/06/06 11:09:53;;;;;;;5.70;5.20;;;;;;;23.39;78.58;99600.44;4961520;28;20041;-79
2022/06/06 11:12:30;;;;;;;5.57;5.07;;;;;;;23.24;79.24;99601.97;4954582;28;20134;-79
2022/06/06 11:15:00;;;;;;;6.00;3.90;;;;;;;23.02;79.60;99608.59;4954178;28;20026;-79
2022/06/06 11:17:50;;;;;;;4.13;3.72;;;;;;;22.94;80.28;99606.69;4954459;28;20058;-78
2022/06/06 11:20:43;;;;;;;4.53;3.30;;;;;;;23.04;80.17;99606.63;4970962;28;20026;-79
2022/06/06 11:23:32;;;;;;;5.75;3.20;;;;;;;23.04;79.60;99603.97;4954107;28;20039;-79
2022/06/06 11:26:22;;;;;;;3.58;3.08;;;;;;;23.03;79.36;99605.78;4970549;28;20023;-79
2022/06/06 11:28:56;;;;;;;3.25;2.95;;;;;;;23.01;79.17;99601.63;4980180;28;20479;-79
2022/06/06 11:31:39;;;;;;;3.80;3.28;;;;;;;23.08;78.73;99607.97;4992781;28;20030;-79
2022/06/06 11:34:37;;;;;;;4.10;2.92;;;;;;;23.19;78.57;99607.75;4992325;28;20061;-79
2022/06/06 11:37:41;;;;;;;3.22;2.92;;;;;;;23.27;78.58;99604.34;4993347;28;20034;-79
2022/06/06 11:40:16;;;;;;;4.38;3.10;;;;;;;23.23;78.33;99601.16;4994879;28;20053;-79
2022/06/06 11:43:04;;;;;;;3.30;3.00;;;;;;;23.01;78.78;99589.19;4994770;28;20026;-78
2022/06/06 11:45:32;;;;;;;3.00;2.80;;;;;;;23.03;79.66;99602.28;4996154;28;20034;-79
2022/06/06 11:48:01;;;;;;;3.75;3.20;;;;;;;22.96;79.93;99602.06;4996177;28;20065;-79
2022/06/06 11:50:38;;;;;;;2.95;2.75;;;;;;;22.94;80.48;99596.06;4996031;28;20389;-79
2022/06/06 11:53:40;;;;;;;3.65;3.17;;;;;;;22.98;80.31;99602.75;4994508;28;20031;-79
2022/06/06 11:56:15;;;;;;;3.70;3.40;;;;;;;22.98;79.66;99604.59;5031330;28;20058;-79
2022/06/06 11:58:58;;;;;;;3.50;3.20;;;;;;;22.98;79.98;99608.06;5017483;28;20052;-79
2022/06/06 12:01:49;;;;;;;3.50;3.15;;;;;;;22.96;80.43;99611.84;5035242;28;20465;-79
2022/06/06 12:04:52;;;;;;;4.38;3.42;;;;;;;22.87;80.82;99610.91;5037382;28;20040;-78
2022/06/06 12:07:54;;;;;;;3.20;3.00;;;;;;;22.82;80.75;99615.84;5017488;28;20119;-79
2022/06/06 12:10:24;;;;;;;3.33;3.00;;;;;;;22.74;81.18;99613.09;5035151;28;20056;-79
2022/06/06 12:12:56;;;;;;;3.28;3.00;;;;;;;22.61;81.89;99601.03;5025089;28;20036;-79
2022/06/06 12:15:54;;;;;;;3.45;3.15;;;;;;;22.59;82.38;99607.50;5054727;28;20017;-78
2022/06/06 12:18:47;;;;;;;3.97;3.10;;;;;;;22.57;82.70;99612.09;4993211;28;20042;-79
2022/06/06 12:21:35;;;;;;;3.25;2.95;;;;;;;22.67;82.22;99616.38;4973220;28;20034;-79
2022/06/06 12:24:19;;;;;;;3.50;2.90;;;;;;;22.80;82.09;99612.53;4949107;28;20162;-79
2022/06/06 12:26:50;;;;;;;3.22;2.90;;;;;;;22.91;81.87;99613.13;4959035;28;20050;-79
2022/06/06 12:29:18;;;;;;;3.60;2.60;;;;;;;23.06;81.24;99617.94;4938377;29;20049;-79
2022/06/06 12:32:19;;;;;;;3.53;2.40;;;;;;;23.09;80.42;99612.31;4956461;28;20047;-79
2022/06/06 12:34:44;;;;;;;;;;;;;;;23.03;80.28;99607.63;4960843;28;20047;-79
2022/06/06 12:37:33;;;;;;;2.97;2.60;;;;;;;22.84;80.85;99604.09;4961450;28;19918;-78
2022/06/06 12:40:08;;;;;;;2.70;2.50;;;;;;;22.70;81.52;99606.41;4960475;28;20593;-79
2022/06/06 12:42:51;;;;;;;2.92;2.72;;;;;;;22.70;81.87;99604.59;4948247;28;20038;-79
2022/06/06 12:45:19;;;;;;;2.90;2.70;;;;;;;22.57;81.72;99607.63;4973537;28;20118;-79
2022/06/06 12:48:09;;;;;;;2.80;2.60;;;;;;;22.54;82.52;99605.25;4955796;28;20497;-79
2022/06/06 12:50:55;;;;;;;2.92;2.72;;;;;;;22.73;81.54;99585.72;4973231;28;20171;-78